sensor_id;sensor_type;location;lat;lon;timestamp;P1;durP1;ratioP1;P2;durP2;ratioP2
67839;SDS011;54636;51.684;5.142;2023-04-07T00:00:53;13.25;;;7.72;;
67839;SDS011;54636;51.684;5.142;2023-04-07T00:03:18;14.50;;;8.27;;
67839;SDS011;54636;51.684;5.142;2023-04-07T00:05:43;10.90;;;7.70;;
67839;SDS011;54636;51.684;5.142;2023-04-07T00:08:09;15.40;;;8.00;;
67839;SDS011;54636;51.684;5.142;2023-04-07T00:10:34;17.17;;;7.78;;
67839;SDS011;54636;51.684;5.142;2023-04-07T00:13:00;14.57;;;7.57;;
67839;SDS011;54636;51.684;5.142;2023-04-07T00:15:26;13.02;;;8.02;;
67839;SDS011;54636;51.684;5.142;2023-04-07T00:17:51;10.60;;;8.05;;
67839;SDS011;54636;51.684;5.142;2023-04-07T00:20:17;9.75;;;7.22;;
67839;SDS011;54636;51.684;5.142;2023-04-07T00:22:42;15.27;;;7.18;;
67839;SDS011;54636;51.684;5.142;2023-04-07T00:25:07;14.13;;;7.65;;
67839;SDS011;54636;51.684;5.142;2023-04-07T00:27:33;9.48;;;6.75;;
67839;SDS011;54636;51.684;5.142;2023-04-07T00:29:58;17.25;;;7.25;;
67839;SDS011;54636;51.684;5.142;2023-04-07T00:32:24;13.55;;;7.28;;
67839;SDS011;54636;51.684;5.142;2023-04-07T00:34:49;10.18;;;7.82;;
67839;SDS011;54636;51.684;5.142;2023-04-07T00:37:15;14.93;;;7.70;;
67839;SDS011;54636;51.684;5.142;2023-04-07T00:39:40;13.20;;;7.57;;
67839;SDS011;54636;51.684;5.142;2023-04-07T00:42:05;12.52;;;7.03;;
67839;SDS011;54636;51.684;5.142;2023-04-07T00:44:31;11.30;;;7.20;;
67839;SDS011;54636;51.684;5.142;2023-04-07T00:46:57;8.23;;;7.30;;
67839;SDS011;54636;51.684;5.142;2023-04-07T00:49:23;10.10;;;6.47;;
67839;SDS011;54636;51.684;5.142;2023-04-07T00:51:48;11.20;;;5.75;;
67839;SDS011;54636;51.684;5.142;2023-04-07T00:54:14;7.30;;;5.07;;
67839;SDS011;54636;51.684;5.142;2023-04-07T00:56:40;9.15;;;5.82;;
67839;SDS011;54636;51.684;5.142;2023-04-07T00:59:05;6.75;;;5.25;;
67839;SDS011;54636;51.684;5.142;2023-04-07T01:01:54;9.20;;;5.35;;
67839;SDS011;54636;51.684;5.142;2023-04-07T01:06:49;6.10;;;5.22;;
67839;SDS011;54636;51.684;5.142;2023-04-07T01:09:18;9.07;;;5.05;;
67839;SDS011;54636;51.684;5.142;2023-04-07T01:11:58;7.38;;;5.53;;
67839;SDS011;54636;51.684;5.142;2023-04-07T01:14:33;13.40;;;6.10;;
67839;SDS011;54636;51.684;5.142;2023-04-07T01:17:05;11.43;;;6.05;;
67839;SDS011;54636;51.684;5.142;2023-04-07T01:19:47;6.72;;;5.97;;
67839;SDS011;54636;51.684;5.142;2023-04-07T01:22:22;11.35;;;6.72;;
67839;SDS011;54636;51.684;5.142;2023-04-07T01:30:53;11.82;;;6.13;;
67839;SDS011;54636;51.684;5.142;2023-04-07T01:33:22;9.50;;;6.35;;
67839;SDS011;54636;51.684;5.142;2023-04-07T01:35:49;7.70;;;4.47;;
67839;SDS011;54636;51.684;5.142;2023-04-07T01:38:16;7.93;;;5.63;;
67839;SDS011;54636;51.684;5.142;2023-04-07T01:40:43;9.93;;;5.07;;
67839;SDS011;54636;51.684;5.142;2023-04-07T01:43:09;6.20;;;4.47;;
67839;SDS011;54636;51.684;5.142;2023-04-07T01:45:36;9.82;;;5.13;;
67839;SDS011;54636;51.684;5.142;2023-04-07T01:48:05;14.40;;;6.63;;
67839;SDS011;54636;51.684;5.142;2023-04-07T01:50:31;10.50;;;5.00;;
67839;SDS011;54636;51.684;5.142;2023-04-07T01:52:58;8.73;;;4.18;;
67839;SDS011;54636;51.684;5.142;2023-04-07T01:55:24;12.82;;;4.97;;
67839;SDS011;54636;51.684;5.142;2023-04-07T01:57:52;12.70;;;5.22;;
67839;SDS011;54636;51.684;5.142;2023-04-07T02:00:17;13.13;;;6.22;;
67839;SDS011;54636;51.684;5.142;2023-04-07T02:02:43;10.27;;;4.32;;
67839;SDS011;54636;51.684;5.142;2023-04-07T02:05:11;7.50;;;3.85;;
67839;SDS011;54636;51.684;5.142;2023-04-07T02:07:48;6.30;;;3.53;;
67839;SDS011;54636;51.684;5.142;2023-04-07T02:10:27;8.60;;;4.20;;
67839;SDS011;54636;51.684;5.142;2023-04-07T02:12:54;10.52;;;4.40;;
67839;SDS011;54636;51.684;5.142;2023-04-07T02:15:21;12.40;;;4.20;;
67839;SDS011;54636;51.684;5.142;2023-04-07T02:17:48;13.10;;;4.95;;
67839;SDS011;54636;51.684;5.142;2023-04-07T02:20:17;8.45;;;4.30;;
67839;SDS011;54636;51.684;5.142;2023-04-07T02:22:44;12.43;;;4.30;;
67839;SDS011;54636;51.684;5.142;2023-04-07T02:27:46;8.15;;;4.35;;
67839;SDS011;54636;51.684;5.142;2023-04-07T02:30:11;8.93;;;4.43;;
67839;SDS011;54636;51.684;5.142;2023-04-07T02:32:37;5.82;;;4.45;;
67839;SDS011;54636;51.684;5.142;2023-04-07T02:35:02;9.13;;;4.43;;
67839;SDS011;54636;51.684;5.142;2023-04-07T02:37:28;7.90;;;4.90;;
67839;SDS011;54636;51.684;5.142;2023-04-07T02:39:53;5.53;;;4.47;;
67839;SDS011;54636;51.684;5.142;2023-04-07T02:42:18;9.27;;;4.90;;
67839;SDS011;54636;51.684;5.142;2023-04-07T02:44:44;12.63;;;4.53;;
67839;SDS011;54636;51.684;5.142;2023-04-07T02:47:09;12.50;;;4.43;;
67839;SDS011;54636;51.684;5.142;2023-04-07T02:49:35;9.70;;;4.45;;
67839;SDS011;54636;51.684;5.142;2023-04-07T02:52:00;8.82;;;4.57;;
67839;SDS011;54636;51.684;5.142;2023-04-07T02:54:26;11.85;;;4.45;;
67839;SDS011;54636;51.684;5.142;2023-04-07T02:56:51;11.23;;;4.90;;
67839;SDS011;54636;51.684;5.142;2023-04-07T02:59:16;10.38;;;4.80;;
67839;SDS011;54636;51.684;5.142;2023-04-07T03:01:42;10.63;;;5.10;;
67839;SDS011;54636;51.684;5.142;2023-04-07T03:04:07;11.02;;;5.65;;
67839;SDS011;54636;51.684;5.142;2023-04-07T03:06:32;11.95;;;5.72;;
67839;SDS011;54636;51.684;5.142;2023-04-07T03:08:58;9.60;;;6.75;;
67839;SDS011;54636;51.684;5.142;2023-04-07T03:11:23;7.80;;;6.03;;
67839;SDS011;54636;51.684;5.142;2023-04-07T03:13:49;10.80;;;6.95;;
67839;SDS011;54636;51.684;5.142;2023-04-07T03:16:14;19.27;;;7.80;;
67839;SDS011;54636;51.684;5.142;2023-04-07T03:18:40;12.85;;;7.35;;
67839;SDS011;54636;51.684;5.142;2023-04-07T03:21:05;17.27;;;7.78;;
67839;SDS011;54636;51.684;5.142;2023-04-07T03:23:30;16.90;;;8.50;;
67839;SDS011;54636;51.684;5.142;2023-04-07T03:25:56;11.60;;;8.15;;
67839;SDS011;54636;51.684;5.142;2023-04-07T03:28:22;19.10;;;8.57;;
67839;SDS011;54636;51.684;5.142;2023-04-07T03:30:47;16.58;;;8.52;;
67839;SDS011;54636;51.684;5.142;2023-04-07T03:33:12;14.10;;;8.00;;
67839;SDS011;54636;51.684;5.142;2023-04-07T03:35:38;18.02;;;7.82;;
67839;SDS011;54636;51.684;5.142;2023-04-07T03:38:06;14.32;;;8.05;;
67839;SDS011;54636;51.684;5.142;2023-04-07T03:40:32;15.25;;;8.23;;
67839;SDS011;54636;51.684;5.142;2023-04-07T03:42:57;21.35;;;8.57;;
67839;SDS011;54636;51.684;5.142;2023-04-07T03:45:23;17.50;;;8.15;;
67839;SDS011;54636;51.684;5.142;2023-04-07T03:47:48;17.02;;;7.25;;
67839;SDS011;54636;51.684;5.142;2023-04-07T03:50:14;18.05;;;8.45;;
67839;SDS011;54636;51.684;5.142;2023-04-07T03:52:39;13.85;;;8.13;;
67839;SDS011;54636;51.684;5.142;2023-04-07T03:55:05;20.88;;;8.90;;
67839;SDS011;54636;51.684;5.142;2023-04-07T03:57:31;17.17;;;8.45;;
67839;SDS011;54636;51.684;5.142;2023-04-07T03:59:57;14.32;;;7.85;;
67839;SDS011;54636;51.684;5.142;2023-04-07T04:02:22;15.25;;;7.95;;
67839;SDS011;54636;51.684;5.142;2023-04-07T04:04:47;19.92;;;9.00;;
67839;SDS011;54636;51.684;5.142;2023-04-07T04:07:13;16.38;;;9.30;;
67839;SDS011;54636;51.684;5.142;2023-04-07T04:09:38;29.02;;;9.63;;
67839;SDS011;54636;51.684;5.142;2023-04-07T04:12:04;15.32;;;9.93;;
67839;SDS011;54636;51.684;5.142;2023-04-07T04:14:29;19.75;;;10.45;;
67839;SDS011;54636;51.684;5.142;2023-04-07T04:16:55;18.88;;;9.55;;
67839;SDS011;54636;51.684;5.142;2023-04-07T04:19:20;25.92;;;10.18;;
67839;SDS011;54636;51.684;5.142;2023-04-07T04:21:45;19.75;;;9.27;;
67839;SDS011;54636;51.684;5.142;2023-04-07T04:24:11;23.83;;;10.95;;
67839;SDS011;54636;51.684;5.142;2023-04-07T04:26:36;26.02;;;12.80;;
67839;SDS011;54636;51.684;5.142;2023-04-07T04:29:01;19.40;;;11.60;;
67839;SDS011;54636;51.684;5.142;2023-04-07T04:31:27;21.98;;;11.60;;
67839;SDS011;54636;51.684;5.142;2023-04-07T04:33:53;21.05;;;11.32;;
67839;SDS011;54636;51.684;5.142;2023-04-07T04:36:18;40.15;;;11.73;;
67839;SDS011;54636;51.684;5.142;2023-04-07T04:38:43;21.35;;;10.35;;
67839;SDS011;54636;51.684;5.142;2023-04-07T04:41:09;18.65;;;10.95;;
67839;SDS011;54636;51.684;5.142;2023-04-07T04:43:34;23.88;;;10.60;;
67839;SDS011;54636;51.684;5.142;2023-04-07T04:46:00;23.52;;;11.20;;
67839;SDS011;54636;51.684;5.142;2023-04-07T04:48:25;27.48;;;10.75;;
67839;SDS011;54636;51.684;5.142;2023-04-07T04:50:51;23.98;;;11.23;;
67839;SDS011;54636;51.684;5.142;2023-04-07T04:53:16;21.42;;;9.98;;
67839;SDS011;54636;51.684;5.142;2023-04-07T04:55:42;22.13;;;9.40;;
67839;SDS011;54636;51.684;5.142;2023-04-07T04:58:11;19.55;;;9.60;;
67839;SDS011;54636;51.684;5.142;2023-04-07T05:00:36;20.60;;;10.27;;
67839;SDS011;54636;51.684;5.142;2023-04-07T05:03:02;15.00;;;9.90;;
67839;SDS011;54636;51.684;5.142;2023-04-07T05:05:28;21.85;;;9.80;;
67839;SDS011;54636;51.684;5.142;2023-04-07T05:07:53;20.00;;;10.18;;
67839;SDS011;54636;51.684;5.142;2023-04-07T05:10:19;20.63;;;10.15;;
67839;SDS011;54636;51.684;5.142;2023-04-07T05:12:44;25.23;;;9.60;;
67839;SDS011;54636;51.684;5.142;2023-04-07T05:15:10;18.63;;;10.02;;
67839;SDS011;54636;51.684;5.142;2023-04-07T05:17:35;26.42;;;12.15;;
67839;SDS011;54636;51.684;5.142;2023-04-07T05:20:01;20.05;;;10.40;;
67839;SDS011;54636;51.684;5.142;2023-04-07T05:22:26;18.13;;;9.48;;
67839;SDS011;54636;51.684;5.142;2023-04-07T05:24:52;17.10;;;11.02;;
67839;SDS011;54636;51.684;5.142;2023-04-07T05:27:17;29.80;;;12.32;;
67839;SDS011;54636;51.684;5.142;2023-04-07T05:29:43;19.08;;;10.77;;
67839;SDS011;54636;51.684;5.142;2023-04-07T05:32:08;15.25;;;11.02;;
67839;SDS011;54636;51.684;5.142;2023-04-07T05:34:33;23.52;;;11.90;;
67839;SDS011;54636;51.684;5.142;2023-04-07T05:36:59;20.52;;;9.60;;
67839;SDS011;54636;51.684;5.142;2023-04-07T05:39:24;18.90;;;10.35;;
67839;SDS011;54636;51.684;5.142;2023-04-07T05:41:50;15.52;;;11.15;;
67839;SDS011;54636;51.684;5.142;2023-04-07T05:44:16;16.60;;;10.02;;
67839;SDS011;54636;51.684;5.142;2023-04-07T05:46:41;22.17;;;10.80;;
67839;SDS011;54636;51.684;5.142;2023-04-07T05:49:07;12.40;;;9.07;;
67839;SDS011;54636;51.684;5.142;2023-04-07T05:51:32;19.85;;;10.23;;
67839;SDS011;54636;51.684;5.142;2023-04-07T05:54:00;16.88;;;9.98;;
67839;SDS011;54636;51.684;5.142;2023-04-07T05:56:27;15.00;;;9.00;;
67839;SDS011;54636;51.684;5.142;2023-04-07T05:58:52;19.05;;;8.82;;
67839;SDS011;54636;51.684;5.142;2023-04-07T06:01:18;15.60;;;8.45;;
67839;SDS011;54636;51.684;5.142;2023-04-07T06:03:43;18.33;;;8.15;;
67839;SDS011;54636;51.684;5.142;2023-04-07T06:06:09;18.17;;;8.65;;
67839;SDS011;54636;51.684;5.142;2023-04-07T06:08:34;15.43;;;7.43;;
67839;SDS011;54636;51.684;5.142;2023-04-07T06:11:00;17.35;;;7.68;;
67839;SDS011;54636;51.684;5.142;2023-04-07T06:13:25;11.93;;;7.97;;
67839;SDS011;54636;51.684;5.142;2023-04-07T06:15:51;14.45;;;7.95;;
67839;SDS011;54636;51.684;5.142;2023-04-07T06:18:19;15.82;;;7.32;;
67839;SDS011;54636;51.684;5.142;2023-04-07T06:20:44;22.08;;;7.60;;
67839;SDS011;54636;51.684;5.142;2023-04-07T06:23:10;16.73;;;7.30;;
67839;SDS011;54636;51.684;5.142;2023-04-07T06:25:35;12.57;;;6.85;;
67839;SDS011;54636;51.684;5.142;2023-04-07T06:28:00;9.32;;;5.70;;
67839;SDS011;54636;51.684;5.142;2023-04-07T06:30:26;9.85;;;5.43;;
67839;SDS011;54636;51.684;5.142;2023-04-07T06:32:51;11.15;;;5.82;;
67839;SDS011;54636;51.684;5.142;2023-04-07T06:35:17;11.32;;;5.03;;
67839;SDS011;54636;51.684;5.142;2023-04-07T06:37:42;5.13;;;4.40;;
67839;SDS011;54636;51.684;5.142;2023-04-07T06:40:07;10.18;;;4.47;;
67839;SDS011;54636;51.684;5.142;2023-04-07T06:42:33;8.82;;;4.50;;
67839;SDS011;54636;51.684;5.142;2023-04-07T06:44:58;13.10;;;4.40;;
67839;SDS011;54636;51.684;5.142;2023-04-07T06:47:24;11.85;;;4.45;;
67839;SDS011;54636;51.684;5.142;2023-04-07T06:49:49;8.82;;;4.03;;
67839;SDS011;54636;51.684;5.142;2023-04-07T06:52:14;8.68;;;3.60;;
67839;SDS011;54636;51.684;5.142;2023-04-07T06:54:40;10.88;;;3.55;;
67839;SDS011;54636;51.684;5.142;2023-04-07T06:57:05;10.48;;;4.22;;
67839;SDS011;54636;51.684;5.142;2023-04-07T07:02:01;11.10;;;4.28;;
67839;SDS011;54636;51.684;5.142;2023-04-07T07:04:26;7.88;;;4.18;;
67839;SDS011;54636;51.684;5.142;2023-04-07T07:06:51;8.40;;;3.78;;
67839;SDS011;54636;51.684;5.142;2023-04-07T07:09:17;11.00;;;4.60;;
67839;SDS011;54636;51.684;5.142;2023-04-07T07:11:42;12.43;;;5.13;;
67839;SDS011;54636;51.684;5.142;2023-04-07T07:14:08;10.05;;;4.20;;
67839;SDS011;54636;51.684;5.142;2023-04-07T07:16:33;10.00;;;4.15;;
67839;SDS011;54636;51.684;5.142;2023-04-07T07:18:59;8.05;;;4.05;;
67839;SDS011;54636;51.684;5.142;2023-04-07T07:21:24;7.22;;;3.40;;
67839;SDS011;54636;51.684;5.142;2023-04-07T07:23:50;8.70;;;3.20;;
67839;SDS011;54636;51.684;5.142;2023-04-07T07:26:16;4.80;;;2.90;;
67839;SDS011;54636;51.684;5.142;2023-04-07T07:28:41;10.27;;;3.28;;
67839;SDS011;54636;51.684;5.142;2023-04-07T07:31:07;8.20;;;2.88;;
67839;SDS011;54636;51.684;5.142;2023-04-07T07:33:40;6.97;;;2.33;;
67839;SDS011;54636;51.684;5.142;2023-04-07T07:36:07;2.78;;;1.63;;
67839;SDS011;54636;51.684;5.142;2023-04-07T07:38:33;8.15;;;2.10;;
67839;SDS011;54636;51.684;5.142;2023-04-07T07:40:59;3.17;;;2.00;;
67839;SDS011;54636;51.684;5.142;2023-04-07T07:43:25;9.57;;;1.98;;
67839;SDS011;54636;51.684;5.142;2023-04-07T07:45:50;6.63;;;1.92;;
67839;SDS011;54636;51.684;5.142;2023-04-07T07:48:15;6.70;;;2.15;;
67839;SDS011;54636;51.684;5.142;2023-04-07T07:50:41;7.60;;;2.50;;
67839;SDS011;54636;51.684;5.142;2023-04-07T07:53:08;9.57;;;2.30;;
67839;SDS011;54636;51.684;5.142;2023-04-07T07:55:34;6.65;;;2.30;;
67839;SDS011;54636;51.684;5.142;2023-04-07T07:57:59;9.32;;;2.47;;
67839;SDS011;54636;51.684;5.142;2023-04-07T08:00:25;6.30;;;1.98;;
67839;SDS011;54636;51.684;5.142;2023-04-07T08:02:51;5.38;;;1.73;;
67839;SDS011;54636;51.684;5.142;2023-04-07T08:05:16;4.95;;;1.85;;
67839;SDS011;54636;51.684;5.142;2023-04-07T08:07:41;5.78;;;2.25;;
67839;SDS011;54636;51.684;5.142;2023-04-07T08:10:07;7.03;;;1.95;;
67839;SDS011;54636;51.684;5.142;2023-04-07T08:12:33;3.90;;;1.70;;
67839;SDS011;54636;51.684;5.142;2023-04-07T08:14:59;6.45;;;2.10;;
67839;SDS011;54636;51.684;5.142;2023-04-07T08:17:24;2.75;;;1.85;;
67839;SDS011;54636;51.684;5.142;2023-04-07T08:19:49;5.95;;;1.98;;
67839;SDS011;54636;51.684;5.142;2023-04-07T08:22:15;5.32;;;1.27;;
67839;SDS011;54636;51.684;5.142;2023-04-07T08:24:40;7.45;;;2.60;;
67839;SDS011;54636;51.684;5.142;2023-04-07T08:27:05;9.00;;;1.75;;
67839;SDS011;54636;51.684;5.142;2023-04-07T08:29:31;8.48;;;1.73;;
67839;SDS011;54636;51.684;5.142;2023-04-07T08:31:56;10.13;;;2.80;;
67839;SDS011;54636;51.684;5.142;2023-04-07T08:34:22;5.32;;;1.67;;
67839;SDS011;54636;51.684;5.142;2023-04-07T08:36:47;6.30;;;1.60;;
67839;SDS011;54636;51.684;5.142;2023-04-07T08:39:13;5.80;;;1.70;;
67839;SDS011;54636;51.684;5.142;2023-04-07T08:41:39;7.03;;;1.70;;
67839;SDS011;54636;51.684;5.142;2023-04-07T08:44:06;7.60;;;1.77;;
67839;SDS011;54636;51.684;5.142;2023-04-07T08:46:33;5.68;;;1.75;;
67839;SDS011;54636;51.684;5.142;2023-04-07T08:49:00;5.22;;;1.55;;
67839;SDS011;54636;51.684;5.142;2023-04-07T08:51:29;7.18;;;1.98;;
67839;SDS011;54636;51.684;5.142;2023-04-07T08:54:02;7.35;;;1.95;;
67839;SDS011;54636;51.684;5.142;2023-04-07T08:56:33;11.05;;;2.10;;
67839;SDS011;54636;51.684;5.142;2023-04-07T08:59:00;8.95;;;1.80;;
67839;SDS011;54636;51.684;5.142;2023-04-07T09:01:26;9.27;;;2.60;;
67839;SDS011;54636;51.684;5.142;2023-04-07T09:03:53;11.68;;;2.42;;
67839;SDS011;54636;51.684;5.142;2023-04-07T09:06:21;5.95;;;1.58;;
67839;SDS011;54636;51.684;5.142;2023-04-07T09:08:47;12.15;;;1.80;;
67839;SDS011;54636;51.684;5.142;2023-04-07T09:11:13;3.03;;;1.48;;
67839;SDS011;54636;51.684;5.142;2023-04-07T09:13:38;4.22;;;1.15;;
67839;SDS011;54636;51.684;5.142;2023-04-07T09:16:03;8.68;;;1.98;;
67839;SDS011;54636;51.684;5.142;2023-04-07T09:18:29;9.75;;;1.83;;
67839;SDS011;54636;51.684;5.142;2023-04-07T09:20:55;9.38;;;1.88;;
67839;SDS011;54636;51.684;5.142;2023-04-07T09:23:28;3.92;;;1.48;;
67839;SDS011;54636;51.684;5.142;2023-04-07T09:25:59;10.05;;;2.13;;
67839;SDS011;54636;51.684;5.142;2023-04-07T09:28:42;6.30;;;1.55;;
67839;SDS011;54636;51.684;5.142;2023-04-07T09:31:09;5.47;;;1.42;;
67839;SDS011;54636;51.684;5.142;2023-04-07T09:33:34;5.65;;;1.38;;
67839;SDS011;54636;51.684;5.142;2023-04-07T09:36:01;6.18;;;2.15;;
67839;SDS011;54636;51.684;5.142;2023-04-07T09:38:37;4.80;;;1.33;;
67839;SDS011;54636;51.684;5.142;2023-04-07T09:41:13;7.03;;;1.92;;
67839;SDS011;54636;51.684;5.142;2023-04-07T09:43:43;7.63;;;1.88;;
67839;SDS011;54636;51.684;5.142;2023-04-07T09:46:13;4.75;;;1.52;;
67839;SDS011;54636;51.684;5.142;2023-04-07T09:48:41;8.15;;;2.00;;
67839;SDS011;54636;51.684;5.142;2023-04-07T09:51:09;14.32;;;2.05;;
67839;SDS011;54636;51.684;5.142;2023-04-07T09:56:07;11.85;;;2.25;;
67839;SDS011;54636;51.684;5.142;2023-04-07T09:58:34;11.32;;;2.38;;
67839;SDS011;54636;51.684;5.142;2023-04-07T10:01:02;5.78;;;1.60;;
67839;SDS011;54636;51.684;5.142;2023-04-07T10:03:29;10.43;;;1.58;;
67839;SDS011;54636;51.684;5.142;2023-04-07T10:05:58;7.38;;;2.10;;
67839;SDS011;54636;51.684;5.142;2023-04-07T10:08:25;7.50;;;2.25;;
67839;SDS011;54636;51.684;5.142;2023-04-07T10:10:51;7.95;;;1.63;;
67839;SDS011;54636;51.684;5.142;2023-04-07T10:13:17;3.72;;;1.45;;
67839;SDS011;54636;51.684;5.142;2023-04-07T10:15:43;9.13;;;2.25;;
67839;SDS011;54636;51.684;5.142;2023-04-07T10:18:09;6.90;;;2.28;;
67839;SDS011;54636;51.684;5.142;2023-04-07T10:20:35;4.55;;;1.75;;
67839;SDS011;54636;51.684;5.142;2023-04-07T10:23:08;6.60;;;2.08;;
67839;SDS011;54636;51.684;5.142;2023-04-07T10:25:41;11.88;;;2.15;;
67839;SDS011;54636;51.684;5.142;2023-04-07T10:28:10;6.97;;;1.77;;
67839;SDS011;54636;51.684;5.142;2023-04-07T10:30:38;7.80;;;1.73;;
67839;SDS011;54636;51.684;5.142;2023-04-07T10:33:04;6.78;;;1.50;;
67839;SDS011;54636;51.684;5.142;2023-04-07T10:38:31;7.88;;;1.90;;
67839;SDS011;54636;51.684;5.142;2023-04-07T10:40:56;8.20;;;1.48;;
67839;SDS011;54636;51.684;5.142;2023-04-07T10:43:43;6.38;;;1.60;;
67839;SDS011;54636;51.684;5.142;2023-04-07T10:46:09;3.92;;;1.45;;
67839;SDS011;54636;51.684;5.142;2023-04-07T10:48:34;8.45;;;1.98;;
67839;SDS011;54636;51.684;5.142;2023-04-07T10:53:28;8.52;;;1.98;;
67839;SDS011;54636;51.684;5.142;2023-04-07T10:55:55;10.15;;;1.67;;
67839;SDS011;54636;51.684;5.142;2023-04-07T11:03:28;7.10;;;1.77;;
67839;SDS011;54636;51.684;5.142;2023-04-07T11:06:11;11.98;;;1.77;;
67839;SDS011;54636;51.684;5.142;2023-04-07T11:11:06;5.70;;;2.00;;
67839;SDS011;54636;51.684;5.142;2023-04-07T11:13:42;8.30;;;1.85;;
67839;SDS011;54636;51.684;5.142;2023-04-07T11:16:08;5.15;;;1.50;;
67839;SDS011;54636;51.684;5.142;2023-04-07T11:18:34;5.60;;;1.65;;
67839;SDS011;54636;51.684;5.142;2023-04-07T11:21:01;10.60;;;1.98;;
67839;SDS011;54636;51.684;5.142;2023-04-07T11:23:29;8.43;;;2.20;;
67839;SDS011;54636;51.684;5.142;2023-04-07T11:26:05;7.47;;;2.30;;
67839;SDS011;54636;51.684;5.142;2023-04-07T11:28:32;6.22;;;2.05;;
67839;SDS011;54636;51.684;5.142;2023-04-07T11:30:58;9.20;;;1.65;;
67839;SDS011;54636;51.684;5.142;2023-04-07T11:33:28;6.68;;;1.42;;
67839;SDS011;54636;51.684;5.142;2023-04-07T11:36:05;7.60;;;2.22;;
67839;SDS011;54636;51.684;5.142;2023-04-07T11:38:34;7.28;;;1.75;;
67839;SDS011;54636;51.684;5.142;2023-04-07T11:41:09;11.80;;;1.92;;
67839;SDS011;54636;51.684;5.142;2023-04-07T11:43:38;6.80;;;1.75;;
67839;SDS011;54636;51.684;5.142;2023-04-07T11:46:09;14.98;;;2.15;;
67839;SDS011;54636;51.684;5.142;2023-04-07T11:48:36;7.93;;;2.05;;
67839;SDS011;54636;51.684;5.142;2023-04-07T11:51:02;6.47;;;1.90;;
67839;SDS011;54636;51.684;5.142;2023-04-07T11:53:29;21.17;;;2.42;;
67839;SDS011;54636;51.684;5.142;2023-04-07T11:56:14;8.05;;;1.55;;
67839;SDS011;54636;51.684;5.142;2023-04-07T11:58:51;7.70;;;1.90;;
67839;SDS011;54636;51.684;5.142;2023-04-07T12:01:18;9.77;;;2.75;;
67839;SDS011;54636;51.684;5.142;2023-04-07T12:03:57;7.05;;;1.63;;
67839;SDS011;54636;51.684;5.142;2023-04-07T12:06:31;11.02;;;2.75;;
67839;SDS011;54636;51.684;5.142;2023-04-07T12:08:59;14.57;;;2.60;;
67839;SDS011;54636;51.684;5.142;2023-04-07T12:11:27;5.63;;;1.73;;
67839;SDS011;54636;51.684;5.142;2023-04-07T12:13:54;8.05;;;1.75;;
67839;SDS011;54636;51.684;5.142;2023-04-07T12:16:20;8.43;;;2.00;;
67839;SDS011;54636;51.684;5.142;2023-04-07T12:18:46;7.88;;;1.80;;
67839;SDS011;54636;51.684;5.142;2023-04-07T12:21:12;9.68;;;2.30;;
67839;SDS011;54636;51.684;5.142;2023-04-07T12:23:37;11.25;;;3.05;;
67839;SDS011;54636;51.684;5.142;2023-04-07T12:26:03;15.43;;;2.53;;
67839;SDS011;54636;51.684;5.142;2023-04-07T12:28:28;13.98;;;2.80;;
67839;SDS011;54636;51.684;5.142;2023-04-07T12:30:54;10.25;;;2.00;;
67839;SDS011;54636;51.684;5.142;2023-04-07T12:33:19;16.05;;;2.70;;
67839;SDS011;54636;51.684;5.142;2023-04-07T12:35:45;7.18;;;1.67;;
67839;SDS011;54636;51.684;5.142;2023-04-07T12:38:11;11.05;;;2.78;;
67839;SDS011;54636;51.684;5.142;2023-04-07T12:40:37;10.77;;;2.45;;
67839;SDS011;54636;51.684;5.142;2023-04-07T12:43:03;8.57;;;2.70;;
67839;SDS011;54636;51.684;5.142;2023-04-07T12:45:28;8.15;;;1.90;;
67839;SDS011;54636;51.684;5.142;2023-04-07T12:47:55;10.95;;;2.63;;
67839;SDS011;54636;51.684;5.142;2023-04-07T12:50:21;9.73;;;2.47;;
67839;SDS011;54636;51.684;5.142;2023-04-07T12:52:47;9.65;;;2.22;;
67839;SDS011;54636;51.684;5.142;2023-04-07T12:55:12;9.95;;;2.20;;
67839;SDS011;54636;51.684;5.142;2023-04-07T12:57:38;11.07;;;2.67;;
67839;SDS011;54636;51.684;5.142;2023-04-07T13:00:04;9.27;;;2.50;;
67839;SDS011;54636;51.684;5.142;2023-04-07T13:02:30;12.45;;;2.85;;
67839;SDS011;54636;51.684;5.142;2023-04-07T13:04:55;7.97;;;2.10;;
67839;SDS011;54636;51.684;5.142;2023-04-07T13:07:20;11.77;;;1.83;;
67839;SDS011;54636;51.684;5.142;2023-04-07T13:09:46;10.80;;;2.00;;
67839;SDS011;54636;51.684;5.142;2023-04-07T13:12:11;8.18;;;1.70;;
67839;SDS011;54636;51.684;5.142;2023-04-07T13:14:38;12.55;;;2.40;;
67839;SDS011;54636;51.684;5.142;2023-04-07T13:17:04;6.30;;;1.77;;
67839;SDS011;54636;51.684;5.142;2023-04-07T13:19:30;7.57;;;2.30;;
67839;SDS011;54636;51.684;5.142;2023-04-07T13:21:56;8.15;;;2.10;;
67839;SDS011;54636;51.684;5.142;2023-04-07T13:24:21;8.63;;;2.00;;
67839;SDS011;54636;51.684;5.142;2023-04-07T13:26:47;11.43;;;2.28;;
67839;SDS011;54636;51.684;5.142;2023-04-07T13:29:12;8.68;;;1.75;;
67839;SDS011;54636;51.684;5.142;2023-04-07T13:31:38;9.88;;;2.30;;
67839;SDS011;54636;51.684;5.142;2023-04-07T13:34:03;9.55;;;2.65;;
67839;SDS011;54636;51.684;5.142;2023-04-07T13:36:29;8.23;;;2.40;;
67839;SDS011;54636;51.684;5.142;2023-04-07T13:38:54;7.53;;;2.47;;
67839;SDS011;54636;51.684;5.142;2023-04-07T13:41:21;8.30;;;2.20;;
67839;SDS011;54636;51.684;5.142;2023-04-07T13:43:46;6.40;;;2.55;;
67839;SDS011;54636;51.684;5.142;2023-04-07T13:46:12;15.15;;;2.83;;
67839;SDS011;54636;51.684;5.142;2023-04-07T13:48:42;11.50;;;2.85;;
67839;SDS011;54636;51.684;5.142;2023-04-07T13:51:09;7.28;;;2.45;;
67839;SDS011;54636;51.684;5.142;2023-04-07T13:53:34;11.93;;;2.97;;
67839;SDS011;54636;51.684;5.142;2023-04-07T13:56:00;13.80;;;3.72;;
67839;SDS011;54636;51.684;5.142;2023-04-07T13:58:25;14.98;;;2.92;;
67839;SDS011;54636;51.684;5.142;2023-04-07T14:00:51;7.97;;;2.63;;
67839;SDS011;54636;51.684;5.142;2023-04-07T14:03:16;8.52;;;2.50;;
67839;SDS011;54636;51.684;5.142;2023-04-07T14:05:41;10.73;;;2.55;;
67839;SDS011;54636;51.684;5.142;2023-04-07T14:08:07;7.38;;;2.92;;
67839;SDS011;54636;51.684;5.142;2023-04-07T14:10:32;9.77;;;2.90;;
67839;SDS011;54636;51.684;5.142;2023-04-07T14:12:58;7.45;;;2.63;;
67839;SDS011;54636;51.684;5.142;2023-04-07T14:15:24;17.15;;;3.45;;
67839;SDS011;54636;51.684;5.142;2023-04-07T14:17:50;15.10;;;5.18;;
67839;SDS011;54636;51.684;5.142;2023-04-07T14:20:15;10.32;;;3.03;;
67839;SDS011;54636;51.684;5.142;2023-04-07T14:22:41;10.50;;;3.63;;
67839;SDS011;54636;51.684;5.142;2023-04-07T14:25:06;13.10;;;3.28;;
67839;SDS011;54636;51.684;5.142;2023-04-07T14:27:31;11.60;;;3.08;;
67839;SDS011;54636;51.684;5.142;2023-04-07T14:29:57;10.13;;;2.30;;
67839;SDS011;54636;51.684;5.142;2023-04-07T14:32:23;8.25;;;2.47;;
67839;SDS011;54636;51.684;5.142;2023-04-07T14:34:49;6.43;;;2.33;;
67839;SDS011;54636;51.684;5.142;2023-04-07T14:37:14;8.57;;;1.77;;
67839;SDS011;54636;51.684;5.142;2023-04-07T14:39:40;12.43;;;3.22;;
67839;SDS011;54636;51.684;5.142;2023-04-07T14:42:06;12.02;;;2.80;;
67839;SDS011;54636;51.684;5.142;2023-04-07T14:44:32;7.47;;;2.58;;
67839;SDS011;54636;51.684;5.142;2023-04-07T14:46:57;10.80;;;3.05;;
67839;SDS011;54636;51.684;5.142;2023-04-07T14:49:23;8.05;;;2.42;;
67839;SDS011;54636;51.684;5.142;2023-04-07T14:51:52;6.38;;;1.98;;
67839;SDS011;54636;51.684;5.142;2023-04-07T14:54:18;5.70;;;2.00;;
67839;SDS011;54636;51.684;5.142;2023-04-07T14:56:43;8.00;;;2.08;;
67839;SDS011;54636;51.684;5.142;2023-04-07T14:59:09;10.10;;;2.70;;
67839;SDS011;54636;51.684;5.142;2023-04-07T15:01:34;9.57;;;2.67;;
67839;SDS011;54636;51.684;5.142;2023-04-07T15:04:00;10.07;;;2.78;;
67839;SDS011;54636;51.684;5.142;2023-04-07T15:06:25;10.52;;;2.88;;